sensor_id;sensor_type;location;lat;lon;timestamp;temperature;humidity
22249;DHT22;67538;52.180;5.646;2023-04-03T00:00:31;3.10;99.90
22249;DHT22;67538;52.180;5.646;2023-04-03T00:02:58;3.10;99.90
22249;DHT22;67538;52.180;5.646;2023-04-03T00:05:25;3.10;99.90
22249;DHT22;67538;52.180;5.646;2023-04-03T00:07:52;3.10;99.90
22249;DHT22;67538;52.180;5.646;2023-04-03T00:10:19;3.00;99.90
22249;DHT22;67538;52.180;5.646;2023-04-03T00:12:48;3.00;99.90
22249;DHT22;67538;52.180;5.646;2023-04-03T00:15:15;3.00;99.90
22249;DHT22;67538;52.180;5.646;2023-04-03T00:17:42;3.00;99.90
22249;DHT22;67538;52.180;5.646;2023-04-03T00:20:09;3.00;99.90
22249;DHT22;67538;52.180;5.646;2023-04-03T00:22:37;3.00;99.90
22249;DHT22;67538;52.180;5.646;2023-04-03T00:25:04;2.90;99.90
22249;DHT22;67538;52.180;5.646;2023-04-03T00:27:31;2.90;99.90
22249;DHT22;67538;52.180;5.646;2023-04-03T00:30:00;2.90;99.90
22249;DHT22;67538;52.180;5.646;2023-04-03T00:32:27;2.80;99.90
22249;DHT22;67538;52.180;5.646;2023-04-03T00:34:54;2.80;99.90
22249;DHT22;67538;52.180;5.646;2023-04-03T00:37:21;2.80;99.90
22249;DHT22;67538;52.180;5.646;2023-04-03T00:39:48;2.80;99.90
22249;DHT22;67538;52.180;5.646;2023-04-03T00:42:16;2.80;99.90
22249;DHT22;67538;52.180;5.646;2023-04-03T00:47:53;2.80;99.90
22249;DHT22;67538;52.180;5.646;2023-04-03T00:50:21;2.80;99.90
22249;DHT22;67538;52.180;5.646;2023-04-03T00:52:48;2.70;99.90
22249;DHT22;67538;52.180;5.646;2023-04-03T00:55:16;2.70;99.90
22249;DHT22;67538;52.180;5.646;2023-04-03T00:57:44;2.70;99.90
22249;DHT22;67538;52.180;5.646;2023-04-03T01:00:16;2.70;99.90
22249;DHT22;67538;52.180;5.646;2023-04-03T01:02:43;2.60;99.90
22249;DHT22;67538;52.180;5.646;2023-04-03T01:05:13;2.60;99.90
22249;DHT22;67538;52.180;5.646;2023-04-03T01:07:42;2.60;99.90
22249;DHT22;67538;52.180;5.646;2023-04-03T01:10:11;2.50;99.90
22249;DHT22;67538;52.180;5.646;2023-04-03T01:12:41;2.50;99.90
22249;DHT22;67538;52.180;5.646;2023-04-03T01:15:10;2.40;99.90
22249;DHT22;67538;52.180;5.646;2023-04-03T01:17:39;2.40;99.90
22249;DHT22;67538;52.180;5.646;2023-04-03T01:23:28;2.30;99.90
22249;DHT22;67538;52.180;5.646;2023-04-03T01:25:57;2.30;99.90
22249;DHT22;67538;52.180;5.646;2023-04-03T01:28:26;2.30;99.90
22249;DHT22;67538;52.180;5.646;2023-04-03T01:31:00;2.30;99.90
22249;DHT22;67538;52.180;5.646;2023-04-03T01:33:30;2.20;99.90
22249;DHT22;67538;52.180;5.646;2023-04-03T01:35:57;2.20;99.90
22249;DHT22;67538;52.180;5.646;2023-04-03T01:38:25;2.20;99.90
22249;DHT22;67538;52.180;5.646;2023-04-03T01:40:52;2.10;99.90
22249;DHT22;67538;52.180;5.646;2023-04-03T01:43:19;2.10;99.90
22249;DHT22;67538;52.180;5.646;2023-04-03T01:45:46;2.10;99.90
22249;DHT22;67538;52.180;5.646;2023-04-03T01:48:15;2.00;99.90
22249;DHT22;67538;52.180;5.646;2023-04-03T01:50:43;2.00;99.90
22249;DHT22;67538;52.180;5.646;2023-04-03T01:53:11;1.90;99.90
22249;DHT22;67538;52.180;5.646;2023-04-03T01:55:38;1.90;99.90
22249;DHT22;67538;52.180;5.646;2023-04-03T01:58:05;1.90;99.90
22249;DHT22;67538;52.180;5.646;2023-04-03T02:00:32;1.80;99.90
22249;DHT22;67538;52.180;5.646;2023-04-03T02:02:59;1.80;99.90
22249;DHT22;67538;52.180;5.646;2023-04-03T02:05:27;1.70;99.90
22249;DHT22;67538;52.180;5.646;2023-04-03T02:07:55;1.70;99.90
22249;DHT22;67538;52.180;5.646;2023-04-03T02:10:22;1.60;99.90
22249;DHT22;67538;52.180;5.646;2023-04-03T02:12:49;1.60;99.90
22249;DHT22;67538;52.180;5.646;2023-04-03T02:15:16;1.60;99.90
22249;DHT22;67538;52.180;5.646;2023-04-03T02:17:44;1.60;99.90
22249;DHT22;67538;52.180;5.646;2023-04-03T02:20:11;1.60;99.90
22249;DHT22;67538;52.180;5.646;2023-04-03T02:22:38;1.60;99.90
22249;DHT22;67538;52.180;5.646;2023-04-03T02:25:07;1.60;99.90
22249;DHT22;67538;52.180;5.646;2023-04-03T02:27:35;1.60;99.90
22249;DHT22;67538;52.180;5.646;2023-04-03T02:30:02;1.50;99.90
22249;DHT22;67538;52.180;5.646;2023-04-03T02:32:29;1.50;99.90
22249;DHT22;67538;52.180;5.646;2023-04-03T02:34:56;1.50;99.90
22249;DHT22;67538;52.180;5.646;2023-04-03T02:37:23;1.50;99.90
22249;DHT22;67538;52.180;5.646;2023-04-03T02:39:51;1.40;99.90
22249;DHT22;67538;52.180;5.646;2023-04-03T02:42:19;1.40;99.90
22249;DHT22;67538;52.180;5.646;2023-04-03T02:44:46;1.40;99.90
22249;DHT22;67538;52.180;5.646;2023-04-03T02:47:13;1.30;99.90
22249;DHT22;67538;52.180;5.646;2023-04-03T02:49:40;1.30;99.90
22249;DHT22;67538;52.180;5.646;2023-04-03T02:52:09;1.40;99.90
22249;DHT22;67538;52.180;5.646;2023-04-03T02:54:36;1.40;99.90
22249;DHT22;67538;52.180;5.646;2023-04-03T02:57:03;1.40;99.90
22249;DHT22;67538;52.180;5.646;2023-04-03T02:59:32;1.40;99.90
22249;DHT22;67538;52.180;5.646;2023-04-03T03:01:59;1.40;99.90
22249;DHT22;67538;52.180;5.646;2023-04-03T03:04:26;1.40;99.90
22249;DHT22;67538;52.180;5.646;2023-04-03T03:06:53;1.30;99.90
22249;DHT22;67538;52.180;5.646;2023-04-03T03:09:20;1.30;99.90
22249;DHT22;67538;52.180;5.646;2023-04-03T03:11:47;1.30;99.90
22249;DHT22;67538;52.180;5.646;2023-04-03T03:14:14;1.20;99.90
22249;DHT22;67538;52.180;5.646;2023-04-03T03:16:43;1.20;99.90
22249;DHT22;67538;52.180;5.646;2023-04-03T03:19:10;1.20;99.90
22249;DHT22;67538;52.180;5.646;2023-04-03T03:21:37;1.20;99.90
22249;DHT22;67538;52.180;5.646;2023-04-03T03:24:04;1.20;99.90
22249;DHT22;67538;52.180;5.646;2023-04-03T03:26:32;1.20;99.90
22249;DHT22;67538;52.180;5.646;2023-04-03T03:28:59;1.20;99.90
22249;DHT22;67538;52.180;5.646;2023-04-03T03:31:26;1.20;99.90
22249;DHT22;67538;52.180;5.646;2023-04-03T03:33:54;1.20;99.90
22249;DHT22;67538;52.180;5.646;2023-04-03T03:36:21;1.20;99.90
22249;DHT22;67538;52.180;5.646;2023-04-03T03:38:48;1.20;99.90
22249;DHT22;67538;52.180;5.646;2023-04-03T03:41:15;1.30;99.90
22249;DHT22;67538;52.180;5.646;2023-04-03T03:43:42;1.20;99.90
22249;DHT22;67538;52.180;5.646;2023-04-03T03:46:10;1.20;99.90
22249;DHT22;67538;52.180;5.646;2023-04-03T03:48:37;1.20;99.90
22249;DHT22;67538;52.180;5.646;2023-04-03T03:51:05;1.20;99.90
22249;DHT22;67538;52.180;5.646;2023-04-03T03:53:32;1.20;99.90
22249;DHT22;67538;52.180;5.646;2023-04-03T03:55:59;1.10;99.90
22249;DHT22;67538;52.180;5.646;2023-04-03T03:58:26;1.00;99.90
22249;DHT22;67538;52.180;5.646;2023-04-03T04:00:53;1.00;99.90
22249;DHT22;67538;52.180;5.646;2023-04-03T04:03:21;1.00;99.90
22249;DHT22;67538;52.180;5.646;2023-04-03T04:05:48;0.90;99.90
22249;DHT22;67538;52.180;5.646;2023-04-03T04:08:16;0.90;99.90
22249;DHT22;67538;52.180;5.646;2023-04-03T04:10:43;0.90;99.90
22249;DHT22;67538;52.180;5.646;2023-04-03T04:13:10;0.90;99.90
22249;DHT22;67538;52.180;5.646;2023-04-03T04:15:37;0.90;99.90
22249;DHT22;67538;52.180;5.646;2023-04-03T04:18:04;0.90;99.90
22249;DHT22;67538;52.180;5.646;2023-04-03T04:20:31;0.90;99.90
22249;DHT22;67538;52.180;5.646;2023-04-03T04:22:58;0.80;99.90
22249;DHT22;67538;52.180;5.646;2023-04-03T04:25:27;0.80;99.90
22249;DHT22;67538;52.180;5.646;2023-04-03T04:27:54;0.80;99.90
22249;DHT22;67538;52.180;5.646;2023-04-03T04:30:21;0.70;99.90
22249;DHT22;67538;52.180;5.646;2023-04-03T04:32:48;0.70;99.90
22249;DHT22;67538;52.180;5.646;2023-04-03T04:35:15;0.70;99.90
22249;DHT22;67538;52.180;5.646;2023-04-03T04:37:42;0.70;99.90
22249;DHT22;67538;52.180;5.646;2023-04-03T04:40:10;0.70;99.90
22249;DHT22;67538;52.180;5.646;2023-04-03T04:42:39;0.70;99.90
22249;DHT22;67538;52.180;5.646;2023-04-03T04:45:07;0.70;99.90
22249;DHT22;67538;52.180;5.646;2023-04-03T04:47:34;0.60;99.90
22249;DHT22;67538;52.180;5.646;2023-04-03T04:50:01;0.60;99.90
22249;DHT22;67538;52.180;5.646;2023-04-03T04:52:28;0.60;99.90
22249;DHT22;67538;52.180;5.646;2023-04-03T04:54:55;0.50;99.90
22249;DHT22;67538;52.180;5.646;2023-04-03T04:57:22;0.50;99.90
22249;DHT22;67538;52.180;5.646;2023-04-03T04:59:50;0.50;99.90
22249;DHT22;67538;52.180;5.646;2023-04-03T05:02:18;0.40;99.90
22249;DHT22;67538;52.180;5.646;2023-04-03T05:04:45;0.40;99.90
22249;DHT22;67538;52.180;5.646;2023-04-03T05:07:12;0.40;99.90
22249;DHT22;67538;52.180;5.646;2023-04-03T05:09:39;0.40;99.90
22249;DHT22;67538;52.180;5.646;2023-04-03T05:12:07;0.50;99.90
22249;DHT22;67538;52.180;5.646;2023-04-03T05:14:35;0.50;99.90
22249;DHT22;67538;52.180;5.646;2023-04-03T05:17:03;0.40;99.90
22249;DHT22;67538;52.180;5.646;2023-04-03T05:19:30;0.40;99.90
22249;DHT22;67538;52.180;5.646;2023-04-03T05:21:57;0.40;99.90
22249;DHT22;67538;52.180;5.646;2023-04-03T05:24:24;0.40;99.90
22249;DHT22;67538;52.180;5.646;2023-04-03T05:26:51;0.50;99.90
22249;DHT22;67538;52.180;5.646;2023-04-03T05:29:18;0.50;99.90
22249;DHT22;67538;52.180;5.646;2023-04-03T05:31:45;0.50;99.90
22249;DHT22;67538;52.180;5.646;2023-04-03T05:34:14;0.50;99.90
22249;DHT22;67538;52.180;5.646;2023-04-03T05:36:41;0.50;99.90
22249;DHT22;67538;52.180;5.646;2023-04-03T05:39:08;0.50;99.90
22249;DHT22;67538;52.180;5.646;2023-04-03T05:41:35;0.50;99.90
22249;DHT22;67538;52.180;5.646;2023-04-03T05:44:02;0.60;99.90
22249;DHT22;67538;52.180;5.646;2023-04-03T05:46:29;0.60;99.90
22249;DHT22;67538;52.180;5.646;2023-04-03T05:48:56;0.60;99.90
22249;DHT22;67538;52.180;5.646;2023-04-03T05:51:29;0.70;99.90
22249;DHT22;67538;52.180;5.646;2023-04-03T05:54:02;0.80;99.90
22249;DHT22;67538;52.180;5.646;2023-04-03T05:56:31;0.80;99.90
22249;DHT22;67538;52.180;5.646;2023-04-03T05:58:58;0.90;99.90
22249;DHT22;67538;52.180;5.646;2023-04-03T06:01:25;0.90;99.90
22249;DHT22;67538;52.180;5.646;2023-04-03T06:03:52;1.10;99.90
22249;DHT22;67538;52.180;5.646;2023-04-03T06:06:20;1.10;99.90
22249;DHT22;67538;52.180;5.646;2023-04-03T06:08:49;1.20;99.90
22249;DHT22;67538;52.180;5.646;2023-04-03T06:11:16;1.30;99.90
22249;DHT22;67538;52.180;5.646;2023-04-03T06:13:43;1.50;99.90
22249;DHT22;67538;52.180;5.646;2023-04-03T06:16:12;1.50;99.90
22249;DHT22;67538;52.180;5.646;2023-04-03T06:18:41;1.70;99.90
22249;DHT22;67538;52.180;5.646;2023-04-03T06:21:08;1.70;99.90
22249;DHT22;67538;52.180;5.646;2023-04-03T06:23:35;1.80;99.90
22249;DHT22;67538;52.180;5.646;2023-04-03T06:26:03;2.10;99.90
22249;DHT22;67538;52.180;5.646;2023-04-03T06:28:31;2.30;99.90
22249;DHT22;67538;52.180;5.646;2023-04-03T06:30:58;2.50;99.90
22249;DHT22;67538;52.180;5.646;2023-04-03T06:33:25;2.70;99.90
22249;DHT22;67538;52.180;5.646;2023-04-03T06:35:56;2.80;99.90
22249;DHT22;67538;52.180;5.646;2023-04-03T06:38:24;2.90;99.90
22249;DHT22;67538;52.180;5.646;2023-04-03T06:40:51;3.00;99.90
22249;DHT22;67538;52.180;5.646;2023-04-03T06:43:21;3.20;99.90
22249;DHT22;67538;52.180;5.646;2023-04-03T06:45:48;3.40;99.90
22249;DHT22;67538;52.180;5.646;2023-04-03T06:48:15;3.50;99.90
22249;DHT22;67538;52.180;5.646;2023-04-03T06:50:42;3.60;99.90
22249;DHT22;67538;52.180;5.646;2023-04-03T06:53:09;3.70;99.90
22249;DHT22;67538;52.180;5.646;2023-04-03T06:55:37;3.80;99.90
22249;DHT22;67538;52.180;5.646;2023-04-03T06:58:04;3.80;99.90
22249;DHT22;67538;52.180;5.646;2023-04-03T07:00:33;3.80;99.90
22249;DHT22;67538;52.180;5.646;2023-04-03T07:03:00;3.90;99.90
22249;DHT22;67538;52.180;5.646;2023-04-03T07:05:27;4.20;99.90
22249;DHT22;67538;52.180;5.646;2023-04-03T07:07:54;6.20;99.90
22249;DHT22;67538;52.180;5.646;2023-04-03T07:10:21;9.60;99.90
22249;DHT22;67538;52.180;5.646;2023-04-03T07:12:48;12.80;99.90
22249;DHT22;67538;52.180;5.646;2023-04-03T07:15:15;14.50;99.90
22249;DHT22;67538;52.180;5.646;2023-04-03T07:17:44;15.90;99.90
22249;DHT22;67538;52.180;5.646;2023-04-03T07:20:11;16.10;99.90
22249;DHT22;67538;52.180;5.646;2023-04-03T07:22:38;16.10;99.90
22249;DHT22;67538;52.180;5.646;2023-04-03T07:25:06;15.70;99.90
22249;DHT22;67538;52.180;5.646;2023-04-03T07:27:34;14.90;99.90
22249;DHT22;67538;52.180;5.646;2023-04-03T07:30:01;14.00;99.90
22249;DHT22;67538;52.180;5.646;2023-04-03T07:32:28;13.80;99.90
22249;DHT22;67538;52.180;5.646;2023-04-03T07:34:58;12.50;99.90
22249;DHT22;67538;52.180;5.646;2023-04-03T07:37:25;13.50;99.90
22249;DHT22;67538;52.180;5.646;2023-04-03T07:39:52;14.00;99.90
22249;DHT22;67538;52.180;5.646;2023-04-03T07:42:20;15.20;99.90
22249;DHT22;67538;52.180;5.646;2023-04-03T07:44:47;14.30;99.90
22249;DHT22;67538;52.180;5.646;2023-04-03T07:47:14;12.40;99.90
22249;DHT22;67538;52.180;5.646;2023-04-03T07:49:42;12.50;99.90
22249;DHT22;67538;52.180;5.646;2023-04-03T07:52:11;13.40;99.90
22249;DHT22;67538;52.180;5.646;2023-04-03T07:54:39;13.30;99.90
22249;DHT22;67538;52.180;5.646;2023-04-03T07:57:06;13.60;99.90
22249;DHT22;67538;52.180;5.646;2023-04-03T07:59:33;14.10;99.90
22249;DHT22;67538;52.180;5.646;2023-04-03T08:02:00;14.80;99.90
22249;DHT22;67538;52.180;5.646;2023-04-03T08:04:30;13.70;99.90
22249;DHT22;67538;52.180;5.646;2023-04-03T08:06:57;12.90;99.90
22249;DHT22;67538;52.180;5.646;2023-04-03T08:09:25;12.80;99.90
22249;DHT22;67538;52.180;5.646;2023-04-03T08:11:52;13.20;99.90
22249;DHT22;67538;52.180;5.646;2023-04-03T08:14:20;13.30;99.90
22249;DHT22;67538;52.180;5.646;2023-04-03T08:16:47;11.50;99.90
22249;DHT22;67538;52.180;5.646;2023-04-03T08:19:15;10.30;99.90
22249;DHT22;67538;52.180;5.646;2023-04-03T08:21:43;9.90;99.90
22249;DHT22;67538;52.180;5.646;2023-04-03T08:24:11;10.10;99.90
22249;DHT22;67538;52.180;5.646;2023-04-03T08:26:39;12.00;99.90
22249;DHT22;67538;52.180;5.646;2023-04-03T08:29:06;12.70;99.90
22249;DHT22;67538;52.180;5.646;2023-04-03T08:31:34;12.10;99.90
22249;DHT22;67538;52.180;5.646;2023-04-03T08:34:01;12.00;99.90
22249;DHT22;67538;52.180;5.646;2023-04-03T08:36:29;11.80;99.90
22249;DHT22;67538;52.180;5.646;2023-04-03T08:38:57;11.60;99.90
22249;DHT22;67538;52.180;5.646;2023-04-03T08:41:29;11.00;99.90
22249;DHT22;67538;52.180;5.646;2023-04-03T08:44:04;10.70;99.90
22249;DHT22;67538;52.180;5.646;2023-04-03T08:46:43;10.30;99.90
22249;DHT22;67538;52.180;5.646;2023-04-03T08:49:21;9.20;99.90
22249;DHT22;67538;52.180;5.646;2023-04-03T08:51:50;8.80;99.90
22249;DHT22;67538;52.180;5.646;2023-04-03T08:54:26;8.60;99.90
22249;DHT22;67538;52.180;5.646;2023-04-03T08:56:55;8.50;99.90
22249;DHT22;67538;52.180;5.646;2023-04-03T08:59:28;8.70;99.90
22249;DHT22;67538;52.180;5.646;2023-04-03T09:01:58;8.90;99.90
22249;DHT22;67538;52.180;5.646;2023-04-03T09:04:28;8.70;99.90
22249;DHT22;67538;52.180;5.646;2023-04-03T09:07:03;8.70;99.90
22249;DHT22;67538;52.180;5.646;2023-04-03T09:09:35;9.10;99.90
22249;DHT22;67538;52.180;5.646;2023-04-03T09:12:15;9.80;99.90
22249;DHT22;67538;52.180;5.646;2023-04-03T09:14:49;10.00;99.90
22249;DHT22;67538;52.180;5.646;2023-04-03T09:17:29;10.50;99.90
22249;DHT22;67538;52.180;5.646;2023-04-03T09:20:11;10.40;99.90
22249;DHT22;67538;52.180;5.646;2023-04-03T09:22:43;9.90;99.90
22249;DHT22;67538;52.180;5.646;2023-04-03T09:25:14;9.70;99.90
22249;DHT22;67538;52.180;5.646;2023-04-03T09:27:41;9.90;99.90
22249;DHT22;67538;52.180;5.646;2023-04-03T09:30:14;10.10;99.90
22249;DHT22;67538;52.180;5.646;2023-04-03T09:32:44;11.20;99.90
22249;DHT22;67538;52.180;5.646;2023-04-03T09:35:19;12.20;99.90
22249;DHT22;67538;52.180;5.646;2023-04-03T09:37:50;11.90;99.90
22249;DHT22;67538;52.180;5.646;2023-04-03T09:40:35;11.20;99.90
22249;DHT22;67538;52.180;5.646;2023-04-03T09:43:20;11.30;99.90
22249;DHT22;67538;52.180;5.646;2023-04-03T09:45:50;10.90;99.10
22249;DHT22;67538;52.180;5.646;2023-04-03T09:48:20;10.10;99.90
22249;DHT22;67538;52.180;5.646;2023-04-03T09:50:56;9.70;99.90
22249;DHT22;67538;52.180;5.646;2023-04-03T09:53:33;9.50;99.90
22249;DHT22;67538;52.180;5.646;2023-04-03T09:56:02;10.00;99.90
22249;DHT22;67538;52.180;5.646;2023-04-03T09:58:31;10.50;99.90
22249;DHT22;67538;52.180;5.646;2023-04-03T10:01:02;10.70;99.90
22249;DHT22;67538;52.180;5.646;2023-04-03T10:03:32;10.90;99.90
22249;DHT22;67538;52.180;5.646;2023-04-03T10:06:00;10.50;99.90
22249;DHT22;67538;52.180;5.646;2023-04-03T10:08:30;9.90;99.90
22249;DHT22;67538;52.180;5.646;2023-04-03T10:11:21;9.50;99.90
22249;DHT22;67538;52.180;5.646;2023-04-03T10:13:54;9.50;99.90
22249;DHT22;67538;52.180;5.646;2023-04-03T10:16:27;9.30;99.90
22249;DHT22;67538;52.180;5.646;2023-04-03T10:19:29;9.10;99.90
22249;DHT22;67538;52.180;5.646;2023-04-03T10:22:02;9.00;99.80
22249;DHT22;67538;52.180;5.646;2023-04-03T10:24:37;8.90;99.90
22249;DHT22;67538;52.180;5.646;2023-04-03T10:27:10;9.00;99.90
22249;DHT22;67538;52.180;5.646;2023-04-03T10:29:42;8.90;99.80
22249;DHT22;67538;52.180;5.646;2023-04-03T10:32:35;8.90;99.90
22249;DHT22;67538;52.180;5.646;2023-04-03T10:35:13;9.00;99.90
22249;DHT22;67538;52.180;5.646;2023-04-03T10:37:54;9.10;99.90
22249;DHT22;67538;52.180;5.646;2023-04-03T10:40:29;9.20;99.90
22249;DHT22;67538;52.180;5.646;2023-04-03T10:43:04;9.10;99.90
22249;DHT22;67538;52.180;5.646;2023-04-03T10:45:46;9.00;99.90
22249;DHT22;67538;52.180;5.646;2023-04-03T10:48:18;9.00;99.90
22249;DHT22;67538;52.180;5.646;2023-04-03T10:50:54;9.00;99.90
22249;DHT22;67538;52.180;5.646;2023-04-03T10:53:31;8.90;99.90
22249;DHT22;67538;52.180;5.646;2023-04-03T10:56:07;8.90;99.90
22249;DHT22;67538;52.180;5.646;2023-04-03T10:58:41;9.00;99.90
22249;DHT22;67538;52.180;5.646;2023-04-03T11:01:13;9.00;99.90
22249;DHT22;67538;52.180;5.646;2023-04-03T11:03:44;8.90;99.90
22249;DHT22;67538;52.180;5.646;2023-04-03T11:06:16;8.90;99.90
22249;DHT22;67538;52.180;5.646;2023-04-03T11:08:46;9.00;99.90
22249;DHT22;67538;52.180;5.646;2023-04-03T11:11:17;9.10;99.90
22249;DHT22;67538;52.180;5.646;2023-04-03T11:13:50;9.20;99.90
22249;DHT22;67538;52.180;5.646;2023-04-03T11:16:24;9.10;99.90
22249;DHT22;67538;52.180;5.646;2023-04-03T11:18:57;9.00;99.90
22249;DHT22;67538;52.180;5.646;2023-04-03T11:21:29;9.00;99.90
22249;DHT22;67538;52.180;5.646;2023-04-03T11:24:02;9.00;99.90
22249;DHT22;67538;52.180;5.646;2023-04-03T11:26:35;9.00;99.90
22249;DHT22;67538;52.180;5.646;2023-04-03T11:29:08;9.20;99.90
22249;DHT22;67538;52.180;5.646;2023-04-03T11:31:48;9.30;99.90
22249;DHT22;67538;52.180;5.646;2023-04-03T11:34:27;9.20;99.90
22249;DHT22;67538;52.180;5.646;2023-04-03T11:37:00;9.10;99.90
22249;DHT22;67538;52.180;5.646;2023-04-03T11:39:31;9.10;99.90
22249;DHT22;67538;52.180;5.646;2023-04-03T11:42:14;9.10;99.90
22249;DHT22;67538;52.180;5.646;2023-04-03T11:44:42;9.10;99.90
22249;DHT22;67538;52.180;5.646;2023-04-03T11:47:10;9.30;99.90
22249;DHT22;67538;52.180;5.646;2023-04-03T11:49:56;9.40;99.90
22249;DHT22;67538;52.180;5.646;2023-04-03T11:52:56;9.30;99.90
22249;DHT22;67538;52.180;5.646;2023-04-03T11:55:53;9.20;99.90
22249;DHT22;67538;52.180;5.646;2023-04-03T11:58:22;9.30;99.90
22249;DHT22;67538;52.180;5.646;2023-04-03T12:00:58;9.30;99.90
22249;DHT22;67538;52.180;5.646;2023-04-03T12:07:00;9.20;99.90
22249;DHT22;67538;52.180;5.646;2023-04-03T12:10:20;9.40;99.90
22249;DHT22;67538;52.180;5.646;2023-04-03T12:12:57;9.50;99.90
22249;DHT22;67538;52.180;5.646;2023-04-03T12:21:17;9.60;99.90
22249;DHT22;67538;52.180;5.646;2023-04-03T12:24:02;9.60;99.90
22249;DHT22;67538;52.180;5.646;2023-04-03T12:26:34;9.70;99.90
22249;DHT22;67538;52.180;5.646;2023-04-03T12:29:13;9.70;99.90
22249;DHT22;67538;52.180;5.646;2023-04-03T12:31:48;9.80;99.90
22249;DHT22;67538;52.180;5.646;2023-04-03T12:34:33;9.90;99.90
22249;DHT22;67538;52.180;5.646;2023-04-03T12:37:08;9.90;99.90
22249;DHT22;67538;52.180;5.646;2023-04-03T12:39:51;9.80;99.90
22249;DHT22;67538;52.180;5.646;2023-04-03T12:42:37;9.80;99.90
22249;DHT22;67538;52.180;5.646;2023-04-03T12:45:17;9.70;99.90
22249;DHT22;67538;52.180;5.646;2023-04-03T12:47:49;9.60;99.90
22249;DHT22;67538;52.180;5.646;2023-04-03T12:50:20;9.60;99.90
22249;DHT22;67538;52.180;5.646;2023-04-03T12:52:56;9.80;99.90
22249;DHT22;67538;52.180;5.646;2023-04-03T12:55:27;9.80;99.90
22249;DHT22;67538;52.180;5.646;2023-04-03T12:57:54;9.90;99.90
22249;DHT22;67538;52.180;5.646;2023-04-03T13:00:31;9.90;99.90
22249;DHT22;67538;52.180;5.646;2023-04-03T13:02:59;9.90;99.90
22249;DHT22;67538;52.180;5.646;2023-04-03T13:05:27;10.10;99.90
22249;DHT22;67538;52.180;5.646;2023-04-03T13:07:58;10.10;99.90
22249;DHT22;67538;52.180;5.646;2023-04-03T13:10:29;10.00;99.90
22249;DHT22;67538;52.180;5.646;2023-04-03T13:12:58;9.90;99.90
22249;DHT22;67538;52.180;5.646;2023-04-03T13:15:41;10.00;99.90
22249;DHT22;67538;52.180;5.646;2023-04-03T13:18:22;10.00;99.90
22249;DHT22;67538;52.180;5.646;2023-04-03T13:20:50;10.00;99.90
22249;DHT22;67538;52.180;5.646;2023-04-03T13:23:19;9.80;99.90
22249;DHT22;67538;52.180;5.646;2023-04-03T13:25:50;9.80;99.90
22249;DHT22;67538;52.180;5.646;2023-04-03T13:28:20;9.70;99.90
22249;DHT22;67538;52.180;5.646;2023-04-03T13:30:59;9.80;99.90
22249;DHT22;67538;52.180;5.646;2023-04-03T13:33:30;9.90;99.90
22249;DHT22;67538;52.180;5.646;2023-04-03T13:36:02;10.10;99.90
22249;DHT22;67538;52.180;5.646;2023-04-03T13:38:32;10.00;99.90
22249;DHT22;67538;52.180;5.646;2023-04-03T13:41:04;10.00;99.90
22249;DHT22;67538;52.180;5.646;2023-04-03T13:43:33;10.30;99.90
22249;DHT22;67538;52.180;5.646;2023-04-03T13:46:04;10.40;99.90
22249;DHT22;67538;52.180;5.646;2023-04-03T13:48:37;10.30;99.90
22249;DHT22;67538;52.180;5.646;2023-04-03T13:51:16;10.20;99.90
22249;DHT22;67538;52.180;5.646;2023-04-03T13:53:45;10.20;99.90
22249;DHT22;67538;52.180;5.646;2023-04-03T13:56:22;10.20;99.90
22249;DHT22;67538;52.180;5.646;2023-04-03T13:58:59;10.40;99.90
22249;DHT22;67538;52.180;5.646;2023-04-03T14:01:35;10.40;99.90
22249;DHT22;67538;52.180;5.646;2023-04-03T14:04:12;10.40;99.90
22249;DHT22;67538;52.180;5.646;2023-04-03T14:06:40;10.30;99.90
22249;DHT22;67538;52.180;5.646;2023-04-03T14:09:07;10.40;99.90
22249;DHT22;67538;52.180;5.646;2023-04-03T14:11:36;10.50;99.90
22249;DHT22;67538;52.180;5.646;2023-04-03T14:14:09;10.50;99.90
22249;DHT22;67538;52.180;5.646;2023-04-03T14:16:39;10.50;99.90
22249;DHT22;67538;52.180;5.646;2023-04-03T14:19:22;10.50;99.90
22249;DHT22;67538;52.180;5.646;2023-04-03T14:21:50;10.40;99.90
22249;DHT22;67538;52.180;5.646;2023-04-03T14:24:18;10.50;99.90
22249;DHT22;67538;52.180;5.646;2023-04-03T14:26:47;10.50;99.90
22249;DHT22;67538;52.180;5.646;2023-04-03T14:29:15;10.50;99.90
22249;DHT22;67538;52.180;5.646;2023-04-03T14:31:44;10.50;99.90
22249;DHT22;67538;52.180;5.646;2023-04-03T14:34:11;10.30;99.90
22249;DHT22;67538;52.180;5.646;2023-04-03T14:36:39;10.20;99.90
22249;DHT22;67538;52.180;5.646;2023-04-03T14:39:08;10.20;99.90
22249;DHT22;67538;52.180;5.646;2023-04-03T14:41:37;10.10;99.90
22249;DHT22;67538;52.180;5.646;2023-04-03T14:44:06;10.10;99.90
22249;DHT22;67538;52.180;5.646;2023-04-03T14:46:35;10.00;99.90
22249;DHT22;67538;52.180;5.646;2023-04-03T14:49:02;10.10;99.90
22249;DHT22;67538;52.180;5.646;2023-04-03T14:51:33;10.20;99.90
22249;DHT22;67538;52.180;5.646;2023-04-03T14:54:00;10.20;99.90
22249;DHT22;67538;52.180;5.646;2023-04-03T14:56:29;10.00;99.90
22249;DHT22;67538;52.180;5.646;2023-04-03T14:58:58;10.00;99.90
22249;DHT22;67538;52.180;5.646;2023-04-03T15:01:28;9.90;99.90
22249;DHT22;67538;52.180;5.646;2023-04-03T15:03:55;9.90;99.90
22249;DHT22;67538;52.180;5.646;2023-04-03T15:06:22;9.90;99.90
22249;DHT22;67538;52.180;5.646;2023-04-03T15:08:49;10.00;99.90
22249;DHT22;67538;52.180;5.646;2023-04-03T15:11:16;10.10;99.90
22249;DHT22;67538;52.180;5.646;2023-04-03T15:13:43;10.10;99.90
22249;DHT22;67538;52.180;5.646;2023-04-03T15:16:15;10.20;99.90
22249;DHT22;67538;52.180;5.646;2023-04-03T15:18:45;10.10;99.90
22249;DHT22;67538;52.180;5.646;2023-04-03T15:21:12;9.90;99.90
22249;DHT22;67538;52.180;5.646;2023-04-03T15:23:40;10.00;99.90
22249;DHT22;67538;52.180;5.646;2023-04-03T15:26:07;9.90;99.90
22249;DHT22;67538;52.180;5.646;2023-04-03T15:28:37;9.90;99.90
22249;DHT22;67538;52.180;5.646;2023-04-03T15:31:05;9.80;99.90
22249;DHT22;67538;52.180;5.646;2023-04-03T15:33:33;9.90;99.90
22249;DHT22;67538;52.180;5.646;2023-04-03T15:36:02;9.90;99.90
22249;DHT22;67538;52.180;5.646;2023-04-03T15:38:30;9.80;99.90
22249;DHT22;67538;52.180;5.646;2023-04-03T15:40:57;9.80;99.90
22249;DHT22;67538;52.180;5.646;2023-04-03T15:43:24;9.70;99.90
22249;DHT22;67538;52.180;5.646;2023-04-03T15:45:52;9.70;99.90
22249;DHT22;67538;52.180;5.646;2023-04-03T15:48:19;9.70;99.90
22249;DHT22;67538;52.180;5.646;2023-04-03T15:50:46;9.60;99.90
22249;DHT22;67538;52.180;5.646;2023-04-03T15:53:15;9.70;99.90
22249;DHT22;67538;52.180;5.646;2023-04-03T15:55:42;9.70;99.90
22249;DHT22;67538;52.180;5.646;2023-04-03T15:58:09;9.60;99.90
22249;DHT22;67538;52.180;5.646;2023-04-03T16:00:36;9.50;99.90
22249;DHT22;67538;52.180;5.646;2023-04-03T16:03:05;9.30;99.90
22249;DHT22;67538;52.180;5.646;2023-04-03T16:05:33;9.20;99.90
22249;DHT22;67538;52.180;5.646;2023-04-03T16:08:02;9.20;99.90
22249;DHT22;67538;52.180;5.646;2023-04-03T16:10:30;9.20;99.90
22249;DHT22;67538;52.180;5.646;2023-04-03T16:12:57;9.20;99.90
22249;DHT22;67538;52.180;5.646;2023-04-03T16:15:25;9.20;99.90